Time;durP1;ratioP1;P1;durP2;ratioP2;P2;SDS_P1;SDS_P2;PMS_P1;PMS_P2;Temp;Humidity;BMP_temperature;BMP_pressure;BME280_temperature;BME280_humidity;BME280_pressure;Samples;Min_cycle;Max_cycle;Signal;HPM_P1;HPM_P2
2022/05/14 00:01:42;;;;;;;24.17;4.50;;;13.90;99.90;;;;;;5079465;28;20082;-77
2022/05/14 00:04:09;;;;;;;19.25;4.40;;;13.90;99.90;;;;;;5066515;28;20072;-77
2022/05/14 00:06:35;;;;;;;18.67;4.15;;;13.90;99.90;;;;;;5083381;28;20127;-77
2022/05/14 00:09:05;;;;;;;22.98;4.63;;;13.90;99.90;;;;;;5072684;28;20472;-77
2022/05/14 00:14:16;;;;;;;25.67;5.18;;;13.90;99.90;;;;;;5081064;28;20106;-77
2022/05/14 00:16:42;;;;;;;17.83;4.60;;;13.90;99.90;;;;;;5089572;28;20143;-76
2022/05/14 00:19:09;;;;;;;18.45;4.18;;;13.90;99.90;;;;;;5091114;28;20036;-76
2022/05/14 00:21:35;;;;;;;14.80;4.80;;;13.90;99.90;;;;;;5069671;28;20131;-76
2022/05/14 00:24:06;;;;;;;20.10;4.53;;;13.90;99.90;;;;;;5089011;28;20048;-77
2022/05/14 00:26:32;;;;;;;13.60;4.23;;;13.90;99.90;;;;;;5052860;28;20484;-77
2022/05/14 00:28:59;;;;;;;19.25;4.32;;;13.90;99.90;;;;;;5077277;28;20093;-75
2022/05/14 00:31:25;;;;;;;18.52;4.05;;;13.90;99.90;;;;;;5085150;28;20051;-76
2022/05/14 00:33:51;;;;;;;15.60;4.32;;;13.80;99.90;;;;;;5076776;28;20052;-77
2022/05/14 00:36:16;;;;;;;20.30;4.82;;;13.80;99.90;;;;;;5088507;28;20620;-76
2022/05/14 00:38:42;;;;;;;26.23;5.10;;;13.90;99.90;;;;;;5069768;28;20112;-76
2022/05/14 00:41:09;;;;;;;19.75;4.32;;;13.70;99.90;;;;;;5075125;28;20048;-76
2022/05/14 00:43:54;;;;;;;18.40;4.68;;;13.70;99.90;;;;;;5059563;28;20048;-76
2022/05/14 00:46:25;;;;;;;19.42;4.55;;;13.70;99.90;;;;;;5072989;28;20164;-77
2022/05/14 00:48:53;;;;;;;21.17;4.18;;;13.70;99.90;;;;;;5070214;28;20384;-76
2022/05/14 00:51:27;;;;;;;25.60;5.13;;;13.70;99.90;;;;;;5052502;28;20057;-77
2022/05/14 00:54:14;;;;;;;16.95;5.07;;;13.70;99.90;;;;;;5071640;28;20079;-76
2022/05/14 00:56:48;;;;;;;22.17;4.63;;;13.70;99.90;;;;;;5050591;28;20060;-76
2022/05/14 00:59:17;;;;;;;25.80;5.03;;;13.70;99.90;;;;;;5049571;28;20048;-76
2022/05/14 01:01:44;;;;;;;23.65;5.68;;;13.70;99.90;;;;;;5043540;28;20155;-77
2022/05/14 01:04:10;;;;;;;18.98;4.40;;;13.70;99.90;;;;;;5067655;28;20032;-77
2022/05/14 01:06:39;;;;;;;20.13;4.80;;;13.70;99.90;;;;;;5068779;28;20044;-77
2022/05/14 01:09:06;;;;;;;22.10;4.75;;;13.70;99.90;;;;;;5070393;28;20341;-77
2022/05/14 01:11:34;;;;;;;24.63;5.28;;;13.70;99.90;;;;;;5067487;28;20205;-76
2022/05/14 01:14:00;;;;;;;17.17;4.88;;;13.70;99.90;;;;;;5065646;28;20048;-76
2022/05/14 01:16:26;;;;;;;15.07;4.40;;;13.70;99.90;;;;;;5063949;28;20052;-77
2022/05/14 01:18:51;;;;;;;20.85;5.30;;;13.70;99.90;;;;;;5066879;28;20044;-77
2022/05/14 01:21:41;;;;;;;30.02;5.85;;;13.70;99.90;;;;;;5046530;28;20056;-77
2022/05/14 01:27:10;;;;;;;29.88;5.55;;;13.70;99.90;;;;;;5069012;28;20045;-77
2022/05/14 01:29:37;;;;;;;24.63;5.47;;;13.60;99.90;;;;;;5066549;28;20090;-77
2022/05/14 01:32:03;;;;;;;19.35;4.45;;;13.60;99.90;;;;;;5066092;28;20066;-77
2022/05/14 01:34:33;;;;;;;16.75;4.47;;;13.70;99.90;;;;;;5044442;28;20045;-78
2022/05/14 01:36:59;;;;;;;22.60;4.93;;;13.60;99.90;;;;;;5045570;28;20052;-77
2022/05/14 01:39:25;;;;;;;26.05;5.28;;;13.60;99.90;;;;;;5069358;28;20101;-77
2022/05/14 01:41:51;;;;;;;23.83;4.80;;;13.60;99.90;;;;;;5046394;28;20053;-77
2022/05/14 01:44:18;;;;;;;28.23;5.90;;;13.60;99.90;;;;;;5067495;28;20047;-77
2022/05/14 01:46:44;;;;;;;25.27;5.35;;;13.60;99.90;;;;;;5067169;28;20090;-78
2022/05/14 01:49:10;;;;;;;28.10;5.68;;;13.60;99.90;;;;;;5067589;28;20052;-77
2022/05/14 01:51:36;;;;;;;25.13;5.45;;;13.60;99.90;;;;;;5077376;28;20158;-77
2022/05/14 01:54:02;;;;;;;20.85;5.90;;;13.50;99.90;;;;;;5069721;28;20139;-77
2022/05/14 01:56:27;;;;;;;28.65;7.05;;;13.60;99.90;;;;;;5074017;28;20098;-77
2022/05/14 01:58:53;;;;;;;27.45;6.47;;;13.60;99.90;;;;;;5057233;28;20033;-78
2022/05/14 02:01:23;;;;;;;26.77;5.93;;;13.60;99.90;;;;;;5063555;28;20495;-78
2022/05/14 02:03:54;;;;;;;24.10;6.05;;;13.60;99.90;;;;;;5059572;28;20093;-78
2022/05/14 02:06:21;;;;;;;30.70;6.82;;;13.60;99.90;;;;;;5062765;28;20033;-77
2022/05/14 02:08:47;;;;;;;25.35;6.50;;;13.60;99.90;;;;;;5076508;28;20075;-78
2022/05/14 02:11:16;;;;;;;22.67;5.82;;;13.60;99.90;;;;;;5089512;28;20079;-78
2022/05/14 02:13:43;;;;;;;22.63;5.57;;;13.50;99.90;;;;;;5084266;28;20048;-77
2022/05/14 02:16:09;;;;;;;24.90;5.68;;;13.60;99.90;;;;;;5058667;28;20094;-77
2022/05/14 02:18:35;;;;;;;25.92;5.80;;;13.50;99.90;;;;;;5067271;28;20415;-75
2022/05/14 02:21:01;;;;;;;36.08;6.47;;;13.50;99.90;;;;;;5065101;28;20044;-77
2022/05/14 02:23:27;;;;;;;24.25;6.47;;;13.50;99.90;;;;;;5049405;28;20090;-76
2022/05/14 02:25:53;;;;;;;30.63;7.43;;;13.40;99.90;;;;;;5061856;28;20525;-76
2022/05/14 02:28:19;;;;;;;28.08;6.80;;;13.40;99.90;;;;;;5051885;28;20503;-76
2022/05/14 02:30:44;;;;;;;26.40;6.18;;;13.40;99.90;;;;;;5063303;28;20044;-76
2022/05/14 02:33:11;;;;;;;35.90;6.65;;;13.40;99.90;;;;;;5068721;28;20699;-77
2022/05/14 02:35:37;;;;;;;27.83;6.88;;;13.40;99.90;;;;;;5081898;28;20087;-76
2022/05/14 02:38:04;;;;;;;32.63;6.72;;;13.40;99.90;;;;;;5084812;28;20071;-76
2022/05/14 02:40:29;;;;;;;32.83;7.43;;;13.40;99.90;;;;;;5067040;28;20045;-76
2022/05/14 02:42:55;;;;;;;25.95;7.75;;;13.30;99.90;;;;;;5061851;28;20098;-76
2022/05/14 02:45:21;;;;;;;29.00;5.82;;;13.30;99.90;;;;;;5068787;28;20045;-77
2022/05/14 02:47:47;;;;;;;33.95;6.70;;;13.30;99.90;;;;;;5051812;28;20043;-77
2022/05/14 02:50:13;;;;;;;31.80;7.25;;;13.30;99.90;;;;;;5040677;28;20439;-75
2022/05/14 02:52:38;;;;;;;29.20;7.15;;;13.30;99.90;;;;;;5061395;28;20128;-77
2022/05/14 02:55:06;;;;;;;30.83;6.78;;;13.20;99.90;;;;;;5065285;28;20080;-76
2022/05/14 02:57:32;;;;;;;34.78;7.13;;;13.20;99.90;;;;;;5057160;28;20114;-76
2022/05/14 02:59:58;;;;;;;38.50;8.10;;;13.20;99.90;;;;;;5064855;28;20067;-75
2022/05/14 03:02:23;;;;;;;28.48;7.07;;;13.20;99.90;;;;;;5067210;28;20480;-77
2022/05/14 03:04:49;;;;;;;25.27;6.53;;;13.20;99.90;;;;;;5059458;28;20060;-77
2022/05/14 03:07:15;;;;;;;28.77;7.20;;;13.20;99.90;;;;;;5064862;28;20040;-77
2022/05/14 03:09:42;;;;;;;32.35;7.13;;;13.10;99.90;;;;;;5063234;28;20246;-76
2022/05/14 03:12:10;;;;;;;31.02;6.90;;;13.10;99.90;;;;;;5064872;28;20101;-76
2022/05/14 03:14:35;;;;;;;27.35;6.35;;;13.10;99.90;;;;;;5057697;28;20032;-76
2022/05/14 03:17:02;;;;;;;24.40;7.32;;;13.10;99.90;;;;;;5067082;28;20143;-76
2022/05/14 03:19:27;;;;;;;24.08;6.85;;;13.10;99.90;;;;;;5065296;28;20032;-76
2022/05/14 03:21:53;;;;;;;23.52;6.35;;;13.00;99.90;;;;;;5066312;28;20547;-76
2022/05/14 03:24:19;;;;;;;29.17;6.32;;;13.00;99.90;;;;;;5062078;28;20033;-76
2022/05/14 03:26:45;;;;;;;31.63;7.45;;;13.00;99.90;;;;;;5066148;28;20053;-76
2022/05/14 03:29:11;;;;;;;33.30;6.90;;;13.00;99.90;;;;;;5066343;28;20061;-76
2022/05/14 03:31:40;;;;;;;30.63;6.60;;;13.00;99.90;;;;;;5068207;28;20053;-76
2022/05/14 03:34:06;;;;;;;28.92;6.07;;;13.00;99.90;;;;;;5065186;28;20037;-77
2022/05/14 03:36:33;;;;;;;28.00;7.35;;;13.00;99.90;;;;;;5068479;28;20535;-76
2022/05/14 03:38:59;;;;;;;33.00;6.60;;;12.90;99.90;;;;;;5071159;28;20047;-77
2022/05/14 03:41:24;;;;;;;27.92;7.40;;;12.90;99.90;;;;;;5070498;28;20040;-77
2022/05/14 03:43:50;;;;;;;38.38;7.35;;;12.90;99.90;;;;;;5068344;28;20041;-76
2022/05/14 03:46:17;;;;;;;26.83;6.53;;;12.90;99.90;;;;;;5069623;28;20341;-76
2022/05/14 03:48:43;;;;;;;27.80;6.25;;;12.80;99.90;;;;;;5067821;28;20044;-76
2022/05/14 03:51:08;;;;;;;30.08;6.93;;;12.80;99.90;;;;;;5086230;28;20078;-76
2022/05/14 03:53:36;;;;;;;32.20;7.40;;;12.80;99.90;;;;;;5090459;28;20367;-76
2022/05/14 03:56:02;;;;;;;31.20;7.50;;;12.80;99.90;;;;;;5073554;28;20044;-76
2022/05/14 03:58:28;;;;;;;33.95;7.63;;;12.80;99.90;;;;;;5089796;28;20040;-78
2022/05/14 04:00:54;;;;;;;27.83;7.30;;;12.80;99.90;;;;;;5089583;28;20048;-76
2022/05/14 04:03:20;;;;;;;29.30;7.25;;;12.70;99.90;;;;;;5071130;28;20140;-76
2022/05/14 04:05:46;;;;;;;35.05;6.88;;;12.70;99.90;;;;;;5071362;28;20117;-76
2022/05/14 04:08:12;;;;;;;41.50;8.43;;;12.70;99.90;;;;;;5072081;28;20361;-77
2022/05/14 04:10:38;;;;;;;32.92;7.72;;;12.70;99.90;;;;;;5073090;28;20105;-76
2022/05/14 04:13:04;;;;;;;23.17;7.13;;;12.70;99.90;;;;;;5058679;28;20048;-76
2022/05/14 04:15:29;;;;;;;30.15;7.25;;;12.70;99.90;;;;;;5069617;28;20079;-76
2022/05/14 04:17:55;;;;;;;37.05;8.35;;;12.70;99.90;;;;;;5070830;28;20040;-77
2022/05/14 04:20:21;;;;;;;28.38;6.75;;;12.70;99.90;;;;;;5090105;28;20122;-77
2022/05/14 04:22:47;;;;;;;32.88;7.47;;;12.70;99.90;;;;;;5090297;28;20046;-76
2022/05/14 04:25:13;;;;;;;33.20;7.30;;;12.70;99.90;;;;;;5066896;28;20401;-76
2022/05/14 04:27:44;;;;;;;35.13;7.53;;;12.70;99.90;;;;;;5090376;28;20036;-76
2022/05/14 04:30:11;;;;;;;33.33;7.00;;;12.80;99.90;;;;;;5071570;28;20105;-76
2022/05/14 04:32:37;;;;;;;28.42;7.07;;;12.70;99.90;;;;;;5071615;28;20040;-76
2022/05/14 04:35:03;;;;;;;38.97;8.13;;;12.80;99.90;;;;;;5089106;28;20047;-77
2022/05/14 04:37:29;;;;;;;31.05;7.70;;;12.70;99.90;;;;;;5091353;28;20048;-77
2022/05/14 04:39:54;;;;;;;30.85;6.88;;;12.70;99.90;;;;;;5071958;28;20051;-76
2022/05/14 04:42:20;;;;;;;35.55;7.60;;;12.80;99.90;;;;;;5071198;28;20043;-77
2022/05/14 04:44:45;;;;;;;29.52;8.18;;;12.80;99.90;;;;;;5088084;28;20039;-76
2022/05/14 04:47:12;;;;;;;30.67;7.40;;;12.80;99.90;;;;;;5088100;28;20710;-77
2022/05/14 04:49:43;;;;;;;30.95;6.88;;;12.80;99.90;;;;;;5087241;28;20060;-76
2022/05/14 04:52:09;;;;;;;32.08;7.18;;;12.80;99.90;;;;;;5070897;28;20063;-77
2022/05/14 04:54:35;;;;;;;31.75;6.50;;;12.80;99.90;;;;;;5083799;28;20055;-77
2022/05/14 04:57:01;;;;;;;29.45;6.60;;;12.80;99.90;;;;;;5070024;28;20392;-76
2022/05/14 04:59:27;;;;;;;28.48;6.50;;;12.90;99.90;;;;;;5090098;28;20043;-76
2022/05/14 05:04:41;;;;;;;37.15;7.65;;;12.90;99.90;;;;;;5087823;28;20052;-76
2022/05/14 05:07:07;;;;;;;37.08;7.25;;;13.00;99.90;;;;;;5070917;28;20085;-76
2022/05/14 05:09:32;;;;;;;32.45;6.40;;;13.00;99.90;;;;;;5089778;28;20536;-77
2022/05/14 05:11:58;;;;;;;31.10;7.80;;;13.00;99.90;;;;;;5085548;28;20740;-77
2022/05/14 05:14:25;;;;;;;31.80;6.75;;;13.10;99.90;;;;;;5071545;28;20040;-76
2022/05/14 05:16:51;;;;;;;31.73;6.63;;;13.10;99.90;;;;;;5088966;28;20044;-76
2022/05/14 05:19:17;;;;;;;20.60;5.47;;;13.10;99.90;;;;;;5070816;28;20073;-76
2022/05/14 05:21:43;;;;;;;32.63;6.45;;;13.20;99.90;;;;;;5083341;28;20040;-77
2022/05/14 05:24:09;;;;;;;29.67;5.93;;;13.20;99.90;;;;;;5088670;28;20040;-76
2022/05/14 05:26:36;;;;;;;33.13;7.15;;;13.20;99.90;;;;;;5070012;28;20070;-76
2022/05/14 05:29:03;;;;;;;30.95;6.72;;;13.30;99.90;;;;;;5069282;28;20109;-77
2022/05/14 05:31:30;;;;;;;30.33;6.10;;;13.40;99.90;;;;;;5069739;28;20046;-77
2022/05/14 05:33:56;;;;;;;34.10;6.30;;;13.40;99.90;;;;;;5088578;28;20051;-77
2022/05/14 05:36:21;;;;;;;35.63;8.40;;;13.40;99.90;;;;;;5087797;28;20051;-76
2022/05/14 05:38:47;;;;;;;33.42;6.25;;;13.50;99.90;;;;;;5089629;28;20499;-76
2022/05/14 05:41:12;;;;;;;27.20;6.45;;;13.50;99.90;;;;;;5070668;28;20040;-77
2022/05/14 05:43:38;;;;;;;28.75;5.63;;;13.50;99.90;;;;;;5088305;28;20065;-76
2022/05/14 05:46:03;;;;;;;27.77;5.53;;;13.50;99.90;;;;;;5088298;28;20055;-77
2022/05/14 05:48:29;;;;;;;30.58;6.45;;;13.50;99.90;;;;;;5071070;28;20040;-77
2022/05/14 05:50:54;;;;;;;23.48;5.65;;;13.50;99.90;;;;;;5068901;28;20085;-77
2022/05/14 05:56:46;;;;;;;26.40;5.78;;;13.60;99.90;;;;;;5090222;28;20503;-76
2022/05/14 05:58:52;;;;;;;37.10;6.97;;;13.70;99.90;;;;;;5069607;28;20127;-79
2022/05/14 06:01:18;;;;;;;24.52;6.28;;;13.70;99.90;;;;;;5084668;28;20161;-79
2022/05/14 06:03:43;;;;;;;26.98;4.72;;;13.80;99.90;;;;;;5068188;28;20052;-77
2022/05/14 06:06:09;;;;;;;21.70;5.28;;;13.80;99.90;;;;;;5061454;28;20033;-76
2022/05/14 06:08:35;;;;;;;19.33;5.13;;;13.90;99.90;;;;;;5058262;28;20123;-77
2022/05/14 06:11:00;;;;;;;30.85;6.72;;;13.90;99.90;;;;;;5069082;28;20690;-78
2022/05/14 06:13:26;;;;;;;28.20;6.25;;;14.00;99.90;;;;;;5068686;28;20483;-78
2022/05/14 06:15:52;;;;;;;21.88;5.10;;;14.10;99.90;;;;;;5067401;28;20036;-78
2022/05/14 06:18:19;;;;;;;26.77;5.45;;;14.10;99.90;;;;;;5086876;28;20249;-77
2022/05/14 06:20:45;;;;;;;26.23;6.22;;;14.20;99.90;;;;;;5083818;28;20043;-77
2022/05/14 06:23:10;;;;;;;23.50;5.28;;;14.30;99.90;;;;;;5087351;28;20109;-77
2022/05/14 06:25:36;;;;;;;33.47;6.22;;;14.30;99.90;;;;;;5069650;28;20464;-77
2022/05/14 06:28:02;;;;;;;24.02;5.25;;;14.40;99.90;;;;;;5084238;28;20036;-78
2022/05/14 06:30:30;;;;;;;32.50;6.07;;;14.40;99.90;;;;;;5071367;28;20479;-77
2022/05/14 06:33:02;;;;;;;26.83;6.63;;;14.40;99.90;;;;;;5088744;28;20097;-77
2022/05/14 06:35:27;;;;;;;25.75;5.68;;;14.50;99.90;;;;;;5070225;28;20102;-79
2022/05/14 06:37:55;;;;;;;30.70;5.90;;;14.50;99.90;;;;;;5068631;28;20390;-77
2022/05/14 06:40:20;;;;;;;23.33;5.45;;;14.70;99.90;;;;;;5068827;28;20070;-76
2022/05/14 06:42:46;;;;;;;25.35;5.63;;;14.50;99.90;;;;;;5087314;28;20044;-76
2022/05/14 06:45:12;;;;;;;25.35;5.40;;;14.60;99.90;;;;;;5069794;28;20135;-77
2022/05/14 06:47:37;;;;;;;27.58;6.63;;;14.60;99.90;;;;;;5083586;28;20476;-77
2022/05/14 06:50:04;;;;;;;23.92;5.63;;;14.60;99.90;;;;;;5066825;28;20052;-77
2022/05/14 06:52:31;;;;;;;25.30;5.18;;;14.60;99.90;;;;;;5086291;28;20428;-77
2022/05/14 06:54:57;;;;;;;28.65;5.32;;;14.60;99.90;;;;;;5083902;28;20136;-78
2022/05/14 06:57:26;;;;;;;14.85;3.55;;;14.70;99.90;;;;;;5085648;28;20358;-78
2022/05/14 06:59:52;;;;;;;25.23;5.20;;;14.70;99.90;;;;;;5086202;28;20063;-78
2022/05/14 07:02:19;;;;;;;21.63;5.30;;;14.70;99.90;;;;;;5067509;28;20097;-78
2022/05/14 07:07:30;;;;;;;28.80;4.75;;;14.70;99.90;;;;;;5084765;28;20603;-78
2022/05/14 07:09:55;;;;;;;18.05;4.72;;;14.70;99.90;;;;;;5088511;28;20075;-78
2022/05/14 07:12:21;;;;;;;30.77;4.97;;;14.80;99.90;;;;;;5090340;28;20127;-78
2022/05/14 07:14:47;;;;;;;30.23;4.75;;;14.70;99.90;;;;;;5092004;28;20475;-78
2022/05/14 07:17:13;;;;;;;22.52;4.70;;;14.90;99.90;;;;;;5089573;28;20072;-77
2022/05/14 07:19:39;;;;;;;26.02;4.70;;;14.90;99.90;;;;;;5089822;28;20099;-77
2022/05/14 07:22:06;;;;;;;21.63;4.55;;;14.90;99.90;;;;;;5090036;28;20408;-78
2022/05/14 07:24:32;;;;;;;18.08;3.72;;;15.10;99.90;;;;;;5090903;28;20043;-77
2022/05/14 07:27:03;;;;;;;18.77;4.45;;;15.20;99.90;;;;;;5072114;28;20128;-78
2022/05/14 07:29:30;;;;;;;17.20;4.32;;;15.10;99.90;;;;;;5088864;28;20479;-78
2022/05/14 07:31:56;;;;;;;19.05;5.35;;;15.10;99.90;;;;;;5073353;28;20566;-77
2022/05/14 07:34:25;;;;;;;19.63;5.03;;;15.20;99.90;;;;;;5092557;28;20147;-78
2022/05/14 07:37:16;;;;;;;17.52;4.95;;;15.20;99.90;;;;;;5073638;28;20151;-78
2022/05/14 07:40:04;;;;;;;16.95;3.58;;;15.30;99.90;;;;;;5054318;28;20080;-78
2022/05/14 07:42:38;;;;;;;18.83;5.03;;;15.30;99.90;;;;;;5079887;28;20048;-77
2022/05/14 07:45:06;;;;;;;15.90;4.15;;;15.30;99.90;;;;;;5091275;28;20066;-78
2022/05/14 07:47:33;;;;;;;25.88;5.22;;;15.40;99.90;;;;;;5076241;28;20494;-77
2022/05/14 07:50:02;;;;;;;20.08;4.65;;;15.40;99.90;;;;;;5092564;28;20048;-78
2022/05/14 07:52:29;;;;;;;19.42;3.90;;;15.50;99.90;;;;;;5087009;28;20049;-77
2022/05/14 07:54:54;;;;;;;22.58;4.45;;;15.50;99.90;;;;;;5075336;28;20368;-78
2022/05/14 07:57:20;;;;;;;16.92;4.40;;;15.60;99.90;;;;;;5043463;28;20052;-78
2022/05/14 07:59:46;;;;;;;20.75;4.57;;;15.60;99.90;;;;;;5056729;28;20052;-78
2022/05/14 08:02:32;;;;;;;22.27;4.30;;;15.60;99.90;;;;;;5071852;28;20089;-77
2022/05/14 08:05:09;;;;;;;14.73;3.75;;;15.70;99.90;;;;;;5055776;28;20051;-79
2022/05/14 08:07:35;;;;;;;22.70;4.70;;;15.70;99.90;;;;;;5053426;28;20083;-79
2022/05/14 08:10:06;;;;;;;18.30;3.83;;;15.80;99.90;;;;;;5052526;28;20044;-78
2022/05/14 08:12:35;;;;;;;16.83;4.07;;;15.80;99.90;;;;;;5061832;28;20048;-78
2022/05/14 08:15:02;;;;;;;17.45;3.90;;;15.90;99.90;;;;;;5071306;28;20302;-77
2022/05/14 08:17:27;;;;;;;15.05;3.88;;;15.90;99.90;;;;;;5053332;28;20052;-78
2022/05/14 08:19:53;;;;;;;14.85;4.07;;;16.00;99.90;;;;;;5068199;28;20051;-79
2022/05/14 08:25:07;;;;;;;17.70;3.90;;;16.10;99.90;;;;;;5064603;28;20056;-78
2022/05/14 08:27:44;;;;;;;18.50;4.72;;;16.10;99.90;;;;;;5070194;28;20487;-78
2022/05/14 08:30:30;;;;;;;20.52;4.35;;;16.10;99.90;;;;;;5046198;28;20067;-77
2022/05/14 08:32:57;;;;;;;19.02;3.92;;;16.20;99.90;;;;;;5061663;28;20037;-77
2022/05/14 08:35:23;;;;;;;18.73;4.55;;;16.30;99.90;;;;;;5081827;28;20049;-78
2022/05/14 08:37:50;;;;;;;24.08;5.03;;;16.30;99.90;;;;;;5053311;28;20040;-76
2022/05/14 08:40:25;;;;;;;18.83;4.60;;;16.40;99.90;;;;;;5070338;28;20044;-77
2022/05/14 08:42:53;;;;;;;16.13;4.00;;;16.50;99.90;;;;;;5070661;28;20152;-78
2022/05/14 08:45:22;;;;;;;21.13;4.22;;;16.60;99.90;;;;;;5071829;28;20055;-79
2022/05/14 08:48:05;;;;;;;21.55;4.38;;;16.70;99.90;;;;;;5071145;28;20103;-77
2022/05/14 08:50:35;;;;;;;24.15;5.25;;;16.70;99.90;;;;;;5081736;28;20051;-76
2022/05/14 08:53:03;;;;;;;22.48;4.55;;;16.80;99.90;;;;;;5066068;28;20087;-75
2022/05/14 08:55:56;;;;;;;23.73;4.82;;;16.70;99.90;;;;;;5071022;28;20056;-76
2022/05/14 08:58:34;;;;;;;24.05;5.35;;;16.70;99.90;;;;;;5069765;28;20066;-76
2022/05/14 09:01:02;;;;;;;25.35;4.43;;;16.80;99.90;;;;;;5067380;28;20541;-77
2022/05/14 09:03:29;;;;;;;26.08;4.47;;;16.80;99.90;;;;;;5068987;28;20040;-77
2022/05/14 09:05:57;;;;;;;18.60;4.05;;;16.90;99.90;;;;;;5069787;28;20056;-78
2022/05/14 09:08:23;;;;;;;32.17;5.32;;;16.90;99.90;;;;;;5062021;28;20053;-76
2022/05/14 09:11:00;;;;;;;20.77;4.38;;;16.90;99.90;;;;;;5066220;28;20119;-77
2022/05/14 09:13:27;;;;;;;16.17;4.20;;;16.90;99.90;;;;;;5066695;28;20039;-76
2022/05/14 09:15:59;;;;;;;17.13;3.70;;;17.00;99.90;;;;;;5074925;28;20074;-76
2022/05/14 09:18:54;;;;;;;15.70;4.22;;;17.10;99.90;;;;;;5071195;28;20472;-76
2022/05/14 09:21:36;;;;;;;18.50;4.68;;;17.20;99.90;;;;;;5065673;28;20060;-79
2022/05/14 09:24:27;;;;;;;21.35;4.75;;;17.20;99.90;;;;;;5068743;28;20545;-80
2022/05/14 09:27:08;;;;;;;18.23;4.32;;;17.40;99.90;;;;;;5061222;28;20370;-76
2022/05/14 09:29:41;;;;;;;19.67;3.92;;;17.40;99.90;;;;;;5063023;28;20056;-80
2022/05/14 09:32:21;;;;;;;28.27;4.50;;;17.50;99.90;;;;;;5069793;28;20052;-78
2022/05/14 09:34:48;;;;;;;26.70;4.32;;;17.50;99.90;;;;;;5061362;28;20141;-78
2022/05/14 09:37:20;;;;;;;19.80;4.53;;;17.60;99.90;;;;;;5053043;28;20040;-79
2022/05/14 09:40:00;;;;;;;22.45;4.88;;;17.60;99.90;;;;;;5070332;28;20086;-77
2022/05/14 09:42:41;;;;;;;29.33;4.63;;;17.70;99.90;;;;;;5068518;28;20048;-78
2022/05/14 09:45:33;;;;;;;23.02;5.00;;;17.70;99.90;;;;;;5069688;28;20040;-79
2022/05/14 09:48:15;;;;;;;24.83;5.35;;;17.70;99.90;;;;;;5065504;28;20555;-77
2022/05/14 09:50:43;;;;;;;25.45;4.90;;;17.70;99.90;;;;;;5068391;28;20057;-77
2022/05/14 09:53:09;;;;;;;17.27;3.95;;;17.70;99.90;;;;;;5058439;28;20070;-78
2022/05/14 09:55:47;;;;;;;19.98;4.28;;;17.80;99.90;;;;;;5069728;28;20472;-78
2022/05/14 09:58:36;;;;;;;20.13;4.15;;;17.90;99.90;;;;;;5076689;28;20044;-76
2022/05/14 10:01:18;;;;;;;19.77;4.15;;;17.90;99.90;;;;;;5057589;28;20730;-78
2022/05/14 10:03:58;;;;;;;16.13;4.00;;;17.90;99.90;;;;;;5052802;28;20131;-77
2022/05/14 10:06:38;;;;;;;20.85;4.57;;;17.90;99.90;;;;;;5067842;28;20750;-78
2022/05/14 10:09:18;;;;;;;16.27;4.15;;;17.80;99.90;;;;;;5068350;28;20537;-78
2022/05/14 10:12:15;;;;;;;21.55;5.65;;;17.90;99.90;;;;;;5055548;28;20135;-78
2022/05/14 10:15:01;;;;;;;18.98;4.22;;;18.00;99.90;;;;;;5052088;28;20160;-78
2022/05/14 10:17:45;;;;;;;19.50;4.80;;;18.10;99.90;;;;;;5068924;28;20041;-79
2022/05/14 10:20:47;;;;;;;18.23;4.47;;;18.20;99.90;;;;;;5068289;28;20128;-78
2022/05/14 10:26:52;;;;;;;23.52;4.53;;;18.30;99.70;;;;;;5052462;28;20056;-78
2022/05/14 10:29:58;;;;;;;18.40;4.43;;;18.40;99.20;;;;;;5043199;28;20060;-78
2022/05/14 10:32:30;;;;;;;21.77;4.18;;;18.50;99.20;;;;;;5058519;28;20044;-77
2022/05/14 10:35:27;;;;;;;15.60;4.45;;;18.50;98.80;;;;;;5069557;28;20146;-77
2022/05/14 10:37:52;;;;;;;24.48;4.75;;;18.50;98.70;;;;;;5072944;28;20330;-76
2022/05/14 10:40:20;;;;;;;20.27;3.97;;;18.80;98.60;;;;;;5074849;28;20056;-80
2022/05/14 10:43:12;;;;;;;21.45;4.95;;;18.60;98.60;;;;;;5066076;28;20040;-76
2022/05/14 10:45:43;;;;;;;;;;;18.70;98.30;;;;;;5065246;28;20056;-78
2022/05/14 10:48:42;;;;;;;21.10;4.78;;;18.70;98.40;;;;;;5048082;28;20402;-75
2022/05/14 10:51:12;;;;;;;29.95;5.15;;;18.70;98.00;;;;;;5071566;28;20432;-77
2022/05/14 10:53:43;;;;;;;17.53;4.83;;;18.80;97.60;;;;;;5088306;28;20123;-74
2022/05/14 10:56:28;;;;;;;20.08;4.97;;;18.90;97.70;;;;;;5087774;28;20051;-75
2022/05/14 10:59:07;;;;;;;21.77;4.68;;;18.90;97.70;;;;;;5067290;28;20043;-74
2022/05/14 11:02:02;;;;;;;25.27;4.00;;;18.90;96.90;;;;;;5069374;28;20446;-75
2022/05/14 11:04:51;;;;;;;23.63;4.85;;;19.10;96.40;;;;;;5077813;28;20056;-75
2022/05/14 11:07:35;;;;;;;25.00;3.75;;;19.20;96.70;;;;;;5088204;28;20051;-76
2022/05/14 11:10:13;;;;;;;20.73;5.15;;;19.30;96.50;;;;;;5089274;28;20052;-76
2022/05/14 11:12:39;;;;;;;23.25;4.90;;;19.40;96.10;;;;;;5065761;28;20098;-74
2022/05/14 11:15:19;;;;;;;14.25;4.43;;;19.40;96.10;;;;;;5069887;28;20181;-75
2022/05/14 11:17:45;;;;;;;21.85;5.05;;;19.40;95.60;;;;;;5087034;28;20120;-75
2022/05/14 11:20:15;;;;;;;17.25;4.15;;;19.40;95.40;;;;;;5068460;28;20643;-77
2022/05/14 11:23:02;;;;;;;19.70;4.97;;;19.40;94.90;;;;;;5066463;28;20043;-75
2022/05/14 11:25:28;;;;;;;95.35;8.95;;;19.50;94.80;;;;;;5068101;28;20088;-76
2022/05/14 11:27:57;;;;;;;24.98;4.43;;;19.50;94.80;;;;;;5084723;28;20039;-76
2022/05/14 11:30:42;;;;;;;19.52;5.65;;;19.60;94.50;;;;;;5088329;28;20079;-76
2022/05/14 11:33:29;;;;;;;24.83;4.93;;;19.80;94.40;;;;;;5060974;28;20044;-77
2022/05/14 11:36:11;;;;;;;23.05;5.75;;;19.80;94.10;;;;;;5081554;28;20137;-75
2022/05/14 11:38:43;;;;;;;23.55;4.90;;;19.80;94.00;;;;;;5048062;28;20089;-77
2022/05/14 11:41:25;;;;;;;20.27;5.53;;;19.90;93.80;;;;;;5087018;28;20663;-75
2022/05/14 11:43:51;;;;;;;15.75;4.13;;;19.80;93.30;;;;;;5079874;28;20207;-75
2022/05/14 11:46:25;;;;;;;20.40;4.93;;;19.90;92.90;;;;;;5055409;28;20135;-82
2022/05/14 11:48:54;;;;;;;29.52;5.07;;;19.90;92.50;;;;;;5085356;28;20575;-82
2022/05/14 11:51:35;;;;;;;19.33;4.93;;;19.90;92.70;;;;;;5065478;28;20056;-81
2022/05/14 11:54:17;;;;;;;21.42;4.78;;;20.00;92.50;;;;;;5046930;28;20052;-84
2022/05/14 11:56:52;;;;;;;20.80;5.25;;;20.00;92.00;;;;;;5071101;28;20063;-83
2022/05/14 11:59:27;;;;;;;18.70;4.35;;;20.00;92.10;;;;;;5085928;28;20633;-86
2022/05/14 12:01:53;;;;;;;20.65;5.03;;;19.90;91.90;;;;;;5091672;28;20079;-82
2022/05/14 12:04:36;;;;;;;21.85;4.63;;;19.90;91.80;;;;;;5074193;28;20044;-84
2022/05/14 12:07:50;;;;;;;23.00;4.95;;;19.90;91.90;;;;;;5052781;28;20041;-83
2022/05/14 12:10:52;;;;;;;24.80;4.90;;;20.10;92.10;;;;;;5006670;28;20061;-81
2022/05/14 12:13:30;;;;;;;19.50;4.93;;;20.20;92.10;;;;;;5050410;28;20106;-84
2022/05/14 12:15:58;;;;;;;18.52;4.50;;;20.40;91.40;;;;;;5049604;28;20045;-83
2022/05/14 12:18:28;;;;;;;32.78;4.65;;;20.60;91.30;;;;;;5047078;28;20136;-85
2022/05/14 12:21:05;;;;;;;26.73;5.10;;;20.70;91.30;;;;;;5053319;28;20048;-83
2022/05/14 12:23:36;;;;;;;22.83;4.65;;;20.80;91.20;;;;;;5040162;28;20087;-83
2022/05/14 12:26:05;;;;;;;30.57;6.00;;;20.80;90.90;;;;;;5071402;28;20054;-85
2022/05/14 12:28:34;;;;;;;22.08;5.70;;;20.90;90.10;;;;;;5067882;28;20207;-85
2022/05/14 12:33:58;;;;;;;20.27;4.47;;;20.80;89.40;;;;;;5072409;28;20052;-84
2022/05/14 12:36:25;;;;;;;28.92;5.47;;;20.90;89.30;;;;;;5070764;28;20054;-85
2022/05/14 12:38:51;;;;;;;25.63;5.28;;;20.90;88.60;;;;;;5060331;28;20044;-85
2022/05/14 12:41:32;;;;;;;21.23;5.03;;;21.00;88.30;;;;;;5080744;28;20044;-86
2022/05/14 12:44:12;;;;;;;27.65;5.68;;;20.90;88.70;;;;;;5065585;28;20037;-83
2022/05/14 12:46:50;;;;;;;24.65;4.57;;;21.00;88.60;;;;;;5077975;28;20448;-83
2022/05/14 12:49:40;;;;;;;20.38;5.03;;;21.00;88.00;;;;;;5090601;28;20040;-83
2022/05/14 12:52:11;;;;;;;21.90;4.90;;;20.90;87.10;;;;;;5053352;28;20199;-85
2022/05/14 12:54:47;;;;;;;20.90;5.35;;;20.90;86.80;;;;;;5053984;28;20081;-84
2022/05/14 12:57:13;;;;;;;19.60;5.28;;;20.90;86.20;;;;;;5036749;28;20746;-84
2022/05/14 12:59:39;;;;;;;24.05;5.22;;;20.70;86.00;;;;;;5054195;28;20041;-87
2022/05/14 13:02:22;;;;;;;27.75;5.53;;;20.60;86.90;;;;;;5064364;28;20122;-86
2022/05/14 13:04:51;;;;;;;21.27;5.28;;;20.60;87.00;;;;;;5049518;28;20064;-87
2022/05/14 13:07:17;;;;;;;22.75;4.50;;;20.60;88.00;;;;;;5050819;28;20530;-79
2022/05/14 13:09:43;;;;;;;16.20;4.35;;;20.60;87.60;;;;;;5069951;28;20045;-86
2022/05/14 13:12:16;;;;;;;21.45;5.38;;;20.50;87.90;;;;;;5050765;28;20048;-77
2022/05/14 13:14:55;;;;;;;25.63;5.95;;;20.50;87.80;;;;;;5051539;28;20625;-75
2022/05/14 13:17:28;;;;;;;29.73;5.03;;;20.40;87.20;;;;;;5052422;28;20047;-75
2022/05/14 13:19:57;;;;;;;22.15;5.60;;;20.30;86.80;;;;;;5052560;28;20050;-75